sensor_id;sensor_type;location;lat;lon;timestamp;pressure;altitude;pressure_sealevel;temperature;humidity
64679;BME280;51094;53.864;27.676;2022-10-23T00:03:42;98599.97;;;5.91;76.49
64679;BME280;51094;53.864;27.676;2022-10-23T00:06:09;98793.13;;;7.22;76.36
64679;BME280;51094;53.864;27.676;2022-10-23T00:08:36;98741.28;;;6.84;76.57
64679;BME280;51094;53.864;27.676;2022-10-23T00:11:12;98704.22;;;6.44;76.80
64679;BME280;51094;53.864;27.676;2022-10-23T00:13:39;98758.81;;;7.06;76.66
64679;BME280;51094;53.864;27.676;2022-10-23T00:16:07;98788.03;;;7.21;76.63
64679;BME280;51094;53.864;27.676;2022-10-23T00:18:34;98785.06;;;7.27;76.67
64679;BME280;51094;53.864;27.676;2022-10-23T00:21:01;98783.00;;;7.32;76.73
64679;BME280;51094;53.864;27.676;2022-10-23T00:23:28;98745.50;;;7.12;76.18
64679;BME280;51094;53.864;27.676;2022-10-23T00:25:55;98619.88;;;6.30;76.43
64679;BME280;51094;53.864;27.676;2022-10-23T00:28:21;98779.59;;;7.31;76.34
64679;BME280;51094;53.864;27.676;2022-10-23T00:30:48;98777.13;;;7.30;76.62
64679;BME280;51094;53.864;27.676;2022-10-23T00:33:15;98780.00;;;7.25;76.32
64679;BME280;51094;53.864;27.676;2022-10-23T00:35:42;98749.69;;;7.00;76.09
64679;BME280;51094;53.864;27.676;2022-10-23T00:38:11;98784.09;;;7.15;76.88
64679;BME280;51094;53.864;27.676;2022-10-23T00:40:38;98719.00;;;6.69;76.67
64679;BME280;51094;53.864;27.676;2022-10-23T00:43:06;98781.84;;;7.23;76.73
64679;BME280;51094;53.864;27.676;2022-10-23T00:45:38;98747.38;;;7.10;76.84
64679;BME280;51094;53.864;27.676;2022-10-23T00:48:05;98780.63;;;7.29;76.73
64679;BME280;51094;53.864;27.676;2022-10-23T00:50:32;98663.09;;;6.41;76.96
64679;BME280;51094;53.864;27.676;2022-10-23T00:53:01;98786.44;;;7.32;76.94
64679;BME280;51094;53.864;27.676;2022-10-23T00:55:29;98681.31;;;6.52;77.07
64679;BME280;51094;53.864;27.676;2022-10-23T00:57:57;98731.59;;;6.88;76.90
64679;BME280;51094;53.864;27.676;2022-10-23T01:00:27;98747.13;;;7.00;76.46
64679;BME280;51094;53.864;27.676;2022-10-23T01:02:55;98539.84;;;5.62;76.99
64679;BME280;51094;53.864;27.676;2022-10-23T01:05:28;98782.81;;;7.08;76.81
64679;BME280;51094;53.864;27.676;2022-10-23T01:08:10;98725.91;;;6.68;77.42
64679;BME280;51094;53.864;27.676;2022-10-23T01:10:43;98771.47;;;7.11;77.53
64679;BME280;51094;53.864;27.676;2022-10-23T01:13:14;98773.94;;;7.12;76.74
64679;BME280;51094;53.864;27.676;2022-10-23T01:15:48;98672.50;;;6.42;77.08
64679;BME280;51094;53.864;27.676;2022-10-23T01:23:41;98762.34;;;7.05;78.11
64679;BME280;51094;53.864;27.676;2022-10-23T01:26:44;98770.63;;;7.10;78.13
64679;BME280;51094;53.864;27.676;2022-10-23T01:32:06;98773.25;;;7.23;78.01
64679;BME280;51094;53.864;27.676;2022-10-23T01:35:01;98768.09;;;7.23;77.51
64679;BME280;51094;53.864;27.676;2022-10-23T01:38:00;98735.22;;;6.98;77.49
64679;BME280;51094;53.864;27.676;2022-10-23T01:40:36;98519.41;;;5.59;76.82
64679;BME280;51094;53.864;27.676;2022-10-23T01:43:14;98750.22;;;6.93;77.40
64679;BME280;51094;53.864;27.676;2022-10-23T01:45:45;98771.22;;;7.01;77.21
64679;BME280;51094;53.864;27.676;2022-10-23T01:48:22;98607.53;;;5.94;77.70
64679;BME280;51094;53.864;27.676;2022-10-23T01:50:53;98742.47;;;6.93;77.92
64679;BME280;51094;53.864;27.676;2022-10-23T01:53:22;98778.63;;;7.20;77.96
64679;BME280;51094;53.864;27.676;2022-10-23T01:55:53;98655.00;;;6.33;77.50
64679;BME280;51094;53.864;27.676;2022-10-23T01:58:24;98791.13;;;7.13;78.13
64679;BME280;51094;53.864;27.676;2022-10-23T02:00:57;98697.44;;;6.56;77.56
64679;BME280;51094;53.864;27.676;2022-10-23T02:03:27;98667.66;;;6.50;77.98
64679;BME280;51094;53.864;27.676;2022-10-23T02:05:54;98618.78;;;6.20;77.20
64679;BME280;51094;53.864;27.676;2022-10-23T02:08:21;98788.34;;;7.16;77.47
64679;BME280;51094;53.864;27.676;2022-10-23T02:11:08;98787.03;;;7.23;77.61
64679;BME280;51094;53.864;27.676;2022-10-23T02:16:41;98796.97;;;7.29;76.94
64679;BME280;51094;53.864;27.676;2022-10-23T02:19:25;98718.22;;;6.81;77.19
64679;BME280;51094;53.864;27.676;2022-10-23T02:22:25;98748.03;;;6.99;77.22
64679;BME280;51094;53.864;27.676;2022-10-23T02:27:39;98792.28;;;6.95;77.31
64679;BME280;51094;53.864;27.676;2022-10-23T02:30:11;98696.59;;;6.55;77.07
64679;BME280;51094;53.864;27.676;2022-10-23T02:32:46;98798.19;;;7.24;77.19
64679;BME280;51094;53.864;27.676;2022-10-23T02:35:19;98800.06;;;7.22;77.29
64679;BME280;51094;53.864;27.676;2022-10-23T02:37:55;98799.66;;;7.28;77.27
64679;BME280;51094;53.864;27.676;2022-10-23T02:40:45;98714.50;;;6.58;77.55
64679;BME280;51094;53.864;27.676;2022-10-23T02:43:17;98616.97;;;6.08;76.95
64679;BME280;51094;53.864;27.676;2022-10-23T02:45:54;98870.78;;;7.21;77.44
64679;BME280;51094;53.864;27.676;2022-10-23T02:48:33;98852.88;;;7.18;77.05
64679;BME280;51094;53.864;27.676;2022-10-23T02:51:20;98800.25;;;7.19;77.70
64679;BME280;51094;53.864;27.676;2022-10-23T02:54:03;98567.16;;;5.79;77.51
64679;BME280;51094;53.864;27.676;2022-10-23T03:01:45;98817.47;;;7.32;77.82
64679;BME280;51094;53.864;27.676;2022-10-23T03:04:15;98728.94;;;6.48;77.53
64679;BME280;51094;53.864;27.676;2022-10-23T03:06:44;98751.03;;;6.66;77.83
64679;BME280;51094;53.864;27.676;2022-10-23T03:09:15;98563.47;;;5.83;77.47
64679;BME280;51094;53.864;27.676;2022-10-23T03:11:42;98778.94;;;7.15;77.57
64679;BME280;51094;53.864;27.676;2022-10-23T03:14:10;98704.41;;;6.41;76.98
64679;BME280;51094;53.864;27.676;2022-10-23T03:16:38;98736.91;;;6.58;77.47
64679;BME280;51094;53.864;27.676;2022-10-23T03:19:04;98815.03;;;6.90;77.27
64679;BME280;51094;53.864;27.676;2022-10-23T03:21:31;98651.22;;;5.97;77.66
64679;BME280;51094;53.864;27.676;2022-10-23T03:23:58;98774.09;;;6.55;77.83
64679;BME280;51094;53.864;27.676;2022-10-23T03:26:31;98792.25;;;6.82;77.95
64679;BME280;51094;53.864;27.676;2022-10-23T03:28:58;98729.50;;;6.39;78.34
64679;BME280;51094;53.864;27.676;2022-10-23T03:31:24;98793.44;;;6.77;78.76
64679;BME280;51094;53.864;27.676;2022-10-23T03:33:55;98682.81;;;6.01;78.10
64679;BME280;51094;53.864;27.676;2022-10-23T03:36:22;98801.59;;;6.71;78.20
64679;BME280;51094;53.864;27.676;2022-10-23T03:38:49;98831.28;;;6.78;78.96
64679;BME280;51094;53.864;27.676;2022-10-23T03:41:15;98815.34;;;6.71;78.72
64679;BME280;51094;53.864;27.676;2022-10-23T03:43:42;98756.34;;;6.37;79.05
64679;BME280;51094;53.864;27.676;2022-10-23T03:46:09;98838.81;;;6.95;79.49
64679;BME280;51094;53.864;27.676;2022-10-23T03:48:38;98839.84;;;6.92;79.20
64679;BME280;51094;53.864;27.676;2022-10-23T03:51:05;98801.44;;;6.45;79.35
64679;BME280;51094;53.864;27.676;2022-10-23T03:53:32;98727.72;;;5.98;78.57
64679;BME280;51094;53.864;27.676;2022-10-23T03:56:01;98843.66;;;6.73;79.81
64679;BME280;51094;53.864;27.676;2022-10-23T03:58:28;98890.81;;;6.76;79.19
64679;BME280;51094;53.864;27.676;2022-10-23T04:00:57;98844.75;;;6.83;79.92
64679;BME280;51094;53.864;27.676;2022-10-23T04:03:24;98842.63;;;6.89;79.93
64679;BME280;51094;53.864;27.676;2022-10-23T04:05:50;98760.94;;;6.46;79.91
64679;BME280;51094;53.864;27.676;2022-10-23T04:08:20;98854.63;;;6.76;79.95
64679;BME280;51094;53.864;27.676;2022-10-23T04:10:49;98747.03;;;6.34;79.10
64679;BME280;51094;53.864;27.676;2022-10-23T04:13:19;98812.13;;;6.53;80.21
64679;BME280;51094;53.864;27.676;2022-10-23T04:15:47;98635.03;;;5.23;79.90
64679;BME280;51094;53.864;27.676;2022-10-23T04:18:15;98819.13;;;6.51;80.42
64679;BME280;51094;53.864;27.676;2022-10-23T04:20:43;98849.19;;;6.66;80.68
64679;BME280;51094;53.864;27.676;2022-10-23T04:23:09;98804.41;;;6.39;80.84
64679;BME280;51094;53.864;27.676;2022-10-23T04:25:39;98860.28;;;6.54;80.96
64679;BME280;51094;53.864;27.676;2022-10-23T04:28:07;98753.50;;;6.13;80.92
64679;BME280;51094;53.864;27.676;2022-10-23T04:30:37;98694.31;;;5.81;80.83
64679;BME280;51094;53.864;27.676;2022-10-23T04:33:05;98836.66;;;6.75;81.16
64679;BME280;51094;53.864;27.676;2022-10-23T04:35:32;98822.16;;;6.72;80.88
64679;BME280;51094;53.864;27.676;2022-10-23T04:37:58;98852.28;;;7.00;80.89
64679;BME280;51094;53.864;27.676;2022-10-23T04:40:25;98854.56;;;7.05;81.08
64679;BME280;51094;53.864;27.676;2022-10-23T04:42:53;98752.19;;;6.48;80.70
64679;BME280;51094;53.864;27.676;2022-10-23T04:45:20;98628.88;;;5.68;80.95
64679;BME280;51094;53.864;27.676;2022-10-23T04:47:47;98806.03;;;6.54;80.85
64679;BME280;51094;53.864;27.676;2022-10-23T04:50:14;98848.38;;;7.07;81.01
64679;BME280;51094;53.864;27.676;2022-10-23T04:52:59;98719.94;;;6.13;80.49
64679;BME280;51094;53.864;27.676;2022-10-23T04:55:49;98857.44;;;7.00;80.79
64679;BME280;51094;53.864;27.676;2022-10-23T04:58:33;98769.53;;;6.46;81.02
64679;BME280;51094;53.864;27.676;2022-10-23T05:01:00;98849.69;;;7.00;81.16
64679;BME280;51094;53.864;27.676;2022-10-23T05:03:28;98698.94;;;5.90;81.39
64679;BME280;51094;53.864;27.676;2022-10-23T05:05:55;98850.31;;;7.18;81.77
64679;BME280;51094;53.864;27.676;2022-10-23T05:08:44;98790.28;;;6.86;81.87
64679;BME280;51094;53.864;27.676;2022-10-23T05:11:38;98868.41;;;7.45;81.45
64679;BME280;51094;53.864;27.676;2022-10-23T05:14:07;98851.66;;;7.50;80.87
64679;BME280;51094;53.864;27.676;2022-10-23T05:16:42;98727.03;;;6.64;80.36
64679;BME280;51094;53.864;27.676;2022-10-23T05:19:17;98906.53;;;7.28;80.47
64679;BME280;51094;53.864;27.676;2022-10-23T05:21:49;98859.97;;;7.28;81.21
64679;BME280;51094;53.864;27.676;2022-10-23T05:24:25;98852.13;;;7.30;80.87
64679;BME280;51094;53.864;27.676;2022-10-23T05:26:58;98718.28;;;6.53;80.92
64679;BME280;51094;53.864;27.676;2022-10-23T05:29:29;98757.91;;;6.80;80.60
64679;BME280;51094;53.864;27.676;2022-10-23T05:31:59;98860.50;;;7.33;81.22
64679;BME280;51094;53.864;27.676;2022-10-23T05:34:31;98815.34;;;6.98;81.17
64679;BME280;51094;53.864;27.676;2022-10-23T05:37:02;98808.47;;;6.84;81.27
64679;BME280;51094;53.864;27.676;2022-10-23T05:39:34;98883.38;;;7.13;81.38
64679;BME280;51094;53.864;27.676;2022-10-23T05:42:04;98868.25;;;7.07;81.93
64679;BME280;51094;53.864;27.676;2022-10-23T05:44:31;98794.44;;;6.33;82.13
64679;BME280;51094;53.864;27.676;2022-10-23T05:47:16;98709.97;;;6.07;82.11
64679;BME280;51094;53.864;27.676;2022-10-23T05:49:57;98870.81;;;7.07;81.96
64679;BME280;51094;53.864;27.676;2022-10-23T05:52:45;98862.91;;;6.95;82.40
64679;BME280;51094;53.864;27.676;2022-10-23T05:55:27;98858.97;;;7.17;82.08
64679;BME280;51094;53.864;27.676;2022-10-23T05:58:15;98867.81;;;7.27;82.46
64679;BME280;51094;53.864;27.676;2022-10-23T06:01:14;98839.03;;;6.78;82.16
64679;BME280;51094;53.864;27.676;2022-10-23T06:04:03;98871.25;;;7.27;82.45
64679;BME280;51094;53.864;27.676;2022-10-23T06:06:52;98721.75;;;6.39;82.53
64679;BME280;51094;53.864;27.676;2022-10-23T06:09:19;98876.13;;;7.32;82.60
64679;BME280;51094;53.864;27.676;2022-10-23T06:11:51;98863.59;;;7.26;82.12
64679;BME280;51094;53.864;27.676;2022-10-23T06:14:20;98733.28;;;6.33;82.38
64679;BME280;51094;53.864;27.676;2022-10-23T06:16:49;98878.75;;;7.18;82.31
64679;BME280;51094;53.864;27.676;2022-10-23T06:19:17;98897.41;;;7.09;82.74
64679;BME280;51094;53.864;27.676;2022-10-23T06:21:45;98882.53;;;7.12;83.19
64679;BME280;51094;53.864;27.676;2022-10-23T06:24:13;98885.97;;;7.13;83.19
64679;BME280;51094;53.864;27.676;2022-10-23T06:26:46;98881.78;;;7.24;83.06
64679;BME280;51094;53.864;27.676;2022-10-23T06:29:50;98886.78;;;7.40;83.41
64679;BME280;51094;53.864;27.676;2022-10-23T06:32:18;98882.25;;;7.44;82.64
64679;BME280;51094;53.864;27.676;2022-10-23T06:34:57;98887.44;;;7.44;82.64
64679;BME280;51094;53.864;27.676;2022-10-23T06:37:24;98710.69;;;6.37;82.04
64679;BME280;51094;53.864;27.676;2022-10-23T06:40:04;98654.63;;;5.98;82.44
64679;BME280;51094;53.864;27.676;2022-10-23T06:42:49;98683.97;;;6.10;82.23
64679;BME280;51094;53.864;27.676;2022-10-23T06:45:37;98537.19;;;5.35;82.49
64679;BME280;51094;53.864;27.676;2022-10-23T06:48:11;98809.22;;;7.13;82.65
64679;BME280;51094;53.864;27.676;2022-10-23T06:50:58;98740.31;;;6.73;81.54
64679;BME280;51094;53.864;27.676;2022-10-23T06:53:34;98888.75;;;7.63;82.29
64679;BME280;51094;53.864;27.676;2022-10-23T06:56:26;98890.41;;;7.64;82.48
64679;BME280;51094;53.864;27.676;2022-10-23T06:58:55;98754.13;;;6.86;82.20
64679;BME280;51094;53.864;27.676;2022-10-23T07:01:22;98749.72;;;6.74;82.15
64679;BME280;51094;53.864;27.676;2022-10-23T07:03:49;98894.31;;;7.57;82.13
64679;BME280;51094;53.864;27.676;2022-10-23T07:06:21;98885.72;;;7.57;82.59
64679;BME280;51094;53.864;27.676;2022-10-23T07:08:47;98887.38;;;7.58;82.27
64679;BME280;51094;53.864;27.676;2022-10-23T07:11:33;98903.78;;;7.71;82.68
64679;BME280;51094;53.864;27.676;2022-10-23T07:14:00;98700.31;;;6.51;81.92
64679;BME280;51094;53.864;27.676;2022-10-23T07:16:27;98614.25;;;6.24;82.16
64679;BME280;51094;53.864;27.676;2022-10-23T07:18:56;98817.53;;;7.58;82.51
64679;BME280;51094;53.864;27.676;2022-10-23T07:21:28;98887.41;;;8.23;82.32
64679;BME280;51094;53.864;27.676;2022-10-23T07:24:06;98869.97;;;7.99;81.26
64679;BME280;51094;53.864;27.676;2022-10-23T07:26:37;98841.06;;;7.93;80.80
64679;BME280;51094;53.864;27.676;2022-10-23T07:29:04;98768.00;;;7.37;81.46
64679;BME280;51094;53.864;27.676;2022-10-23T07:31:32;98877.84;;;7.98;80.82
64679;BME280;51094;53.864;27.676;2022-10-23T07:34:31;98894.88;;;8.15;81.10
64679;BME280;51094;53.864;27.676;2022-10-23T07:37:23;98825.63;;;7.66;80.78
64679;BME280;51094;53.864;27.676;2022-10-23T07:39:50;98888.13;;;8.12;81.33
64679;BME280;51094;53.864;27.676;2022-10-23T07:42:17;98858.69;;;8.00;81.09
64679;BME280;51094;53.864;27.676;2022-10-23T07:44:44;98897.78;;;8.23;81.39
64679;BME280;51094;53.864;27.676;2022-10-23T07:47:11;98776.13;;;7.58;80.66
64679;BME280;51094;53.864;27.676;2022-10-23T07:49:42;98891.22;;;8.30;80.90
64679;BME280;51094;53.864;27.676;2022-10-23T07:52:09;98902.69;;;8.40;80.95
64679;BME280;51094;53.864;27.676;2022-10-23T07:54:56;98839.75;;;8.13;80.91
64679;BME280;51094;53.864;27.676;2022-10-23T07:57:26;98901.34;;;8.60;80.49
64679;BME280;51094;53.864;27.676;2022-10-23T08:00:00;98901.75;;;8.41;79.64
64679;BME280;51094;53.864;27.676;2022-10-23T08:02:28;98718.78;;;6.99;80.64
64679;BME280;51094;53.864;27.676;2022-10-23T08:04:55;98901.94;;;8.38;79.91
64679;BME280;51094;53.864;27.676;2022-10-23T08:07:26;98909.41;;;8.43;80.81
64679;BME280;51094;53.864;27.676;2022-10-23T08:09:55;98904.03;;;8.46;80.70
64679;BME280;51094;53.864;27.676;2022-10-23T08:12:22;98873.31;;;8.14;80.13
64679;BME280;51094;53.864;27.676;2022-10-23T08:14:49;98924.53;;;8.36;80.60
64679;BME280;51094;53.864;27.676;2022-10-23T08:17:16;98814.22;;;7.56;80.31
64679;BME280;51094;53.864;27.676;2022-10-23T08:20:09;98347.88;;;4.43;80.28
64679;BME280;51094;53.864;27.676;2022-10-23T08:22:41;98848.53;;;7.97;80.59
64679;BME280;51094;53.864;27.676;2022-10-23T08:25:08;98912.75;;;8.57;80.81
64679;BME280;51094;53.864;27.676;2022-10-23T08:27:36;98916.03;;;8.85;80.94
64679;BME280;51094;53.864;27.676;2022-10-23T08:30:04;98835.53;;;8.37;79.39
64679;BME280;51094;53.864;27.676;2022-10-23T08:32:31;98912.28;;;9.02;78.87
64679;BME280;51094;53.864;27.676;2022-10-23T08:35:00;98817.06;;;8.54;79.40
64679;BME280;51094;53.864;27.676;2022-10-23T08:37:29;98749.41;;;8.21;77.80
64679;BME280;51094;53.864;27.676;2022-10-23T08:39:56;98886.97;;;9.05;78.11
64679;BME280;51094;53.864;27.676;2022-10-23T08:42:47;98939.59;;;9.31;77.50
64679;BME280;51094;53.864;27.676;2022-10-23T08:45:29;98893.50;;;8.98;77.84
64679;BME280;51094;53.864;27.676;2022-10-23T08:51:27;98835.03;;;8.81;77.04
64679;BME280;51094;53.864;27.676;2022-10-23T08:54:01;98790.00;;;8.58;77.07
64679;BME280;51094;53.864;27.676;2022-10-23T08:56:35;98924.81;;;9.44;77.85
64679;BME280;51094;53.864;27.676;2022-10-23T08:59:12;98694.75;;;8.00;77.09
64679;BME280;51094;53.864;27.676;2022-10-23T09:01:48;98930.13;;;9.30;76.98
64679;BME280;51094;53.864;27.676;2022-10-23T09:04:18;98908.63;;;9.04;77.22
64679;BME280;51094;53.864;27.676;2022-10-23T09:06:53;98789.94;;;8.22;77.68
64679;BME280;51094;53.864;27.676;2022-10-23T09:12:06;98943.31;;;9.27;76.97
64679;BME280;51094;53.864;27.676;2022-10-23T09:17:41;98941.78;;;9.24;78.05
64679;BME280;51094;53.864;27.676;2022-10-23T09:20:15;98942.56;;;9.38;78.12
64679;BME280;51094;53.864;27.676;2022-10-23T09:22:44;98935.84;;;9.59;78.15
64679;BME280;51094;53.864;27.676;2022-10-23T09:25:27;98949.66;;;9.59;77.17
64679;BME280;51094;53.864;27.676;2022-10-23T09:27:57;98891.19;;;9.06;76.88
64679;BME280;51094;53.864;27.676;2022-10-23T09:30:34;98940.91;;;9.37;77.36
64679;BME280;51094;53.864;27.676;2022-10-23T09:33:20;98942.19;;;9.31;77.95
64679;BME280;51094;53.864;27.676;2022-10-23T09:38:36;98939.44;;;9.45;78.30
64679;BME280;51094;53.864;27.676;2022-10-23T09:41:27;98939.69;;;9.53;77.62
64679;BME280;51094;53.864;27.676;2022-10-23T09:46:49;98911.72;;;9.46;77.48
64679;BME280;51094;53.864;27.676;2022-10-23T09:49:23;98971.31;;;9.71;77.18
64679;BME280;51094;53.864;27.676;2022-10-23T09:52:03;98903.22;;;9.44;77.78
64679;BME280;51094;53.864;27.676;2022-10-23T09:54:36;98808.91;;;8.84;77.58
64679;BME280;51094;53.864;27.676;2022-10-23T09:59:58;98816.56;;;8.86;77.46
64679;BME280;51094;53.864;27.676;2022-10-23T10:02:37;98942.97;;;9.68;77.46
64679;BME280;51094;53.864;27.676;2022-10-23T10:05:37;98924.34;;;9.26;77.80
64679;BME280;51094;53.864;27.676;2022-10-23T10:08:23;98945.41;;;9.58;78.19
64679;BME280;51094;53.864;27.676;2022-10-23T10:11:29;98920.47;;;9.32;78.62
64679;BME280;51094;53.864;27.676;2022-10-23T10:16:49;98971.94;;;9.38;79.09
64679;BME280;51094;53.864;27.676;2022-10-23T10:22:38;98953.28;;;9.57;80.62
64679;BME280;51094;53.864;27.676;2022-10-23T10:28:21;98957.63;;;9.45;80.70
64679;BME280;51094;53.864;27.676;2022-10-23T10:31:03;98939.41;;;9.21;80.90
64679;BME280;51094;53.864;27.676;2022-10-23T10:37:04;98697.66;;;7.83;81.84
64679;BME280;51094;53.864;27.676;2022-10-23T10:45:55;98950.16;;;9.41;82.39
64679;BME280;51094;53.864;27.676;2022-10-23T10:54:23;98845.66;;;8.65;83.81
64679;BME280;51094;53.864;27.676;2022-10-23T10:56:55;98635.38;;;7.48;83.44
64679;BME280;51094;53.864;27.676;2022-10-23T10:59:31;98939.78;;;9.41;83.49
64679;BME280;51094;53.864;27.676;2022-10-23T11:04:56;98916.94;;;9.33;83.71
64679;BME280;51094;53.864;27.676;2022-10-23T11:07:33;98935.34;;;9.54;83.63
64679;BME280;51094;53.864;27.676;2022-10-23T11:10:16;98746.50;;;8.25;83.69
64679;BME280;51094;53.864;27.676;2022-10-23T11:12:45;98907.59;;;9.43;83.76
64679;BME280;51094;53.864;27.676;2022-10-23T11:15:15;98936.34;;;9.64;83.97
64679;BME280;51094;53.864;27.676;2022-10-23T11:17:57;98922.59;;;9.51;83.95
64679;BME280;51094;53.864;27.676;2022-10-23T11:20:47;98851.59;;;9.28;83.17
64679;BME280;51094;53.864;27.676;2022-10-23T11:31:50;98962.38;;;9.75;84.27
64679;BME280;51094;53.864;27.676;2022-10-23T11:37:07;98932.16;;;9.74;84.98
64679;BME280;51094;53.864;27.676;2022-10-23T11:39:38;98999.66;;;9.74;84.73
64679;BME280;51094;53.864;27.676;2022-10-23T11:44:43;98932.44;;;9.82;85.09
64679;BME280;51094;53.864;27.676;2022-10-23T11:47:32;98920.16;;;9.84;84.94
64679;BME280;51094;53.864;27.676;2022-10-23T11:52:36;98937.69;;;9.93;85.26
64679;BME280;51094;53.864;27.676;2022-10-23T11:55:28;98926.25;;;9.96;85.17
64679;BME280;51094;53.864;27.676;2022-10-23T11:58:17;98928.94;;;9.94;85.57
64679;BME280;51094;53.864;27.676;2022-10-23T12:01:01;98872.22;;;9.29;85.05
64679;BME280;51094;53.864;27.676;2022-10-23T12:03:47;98892.97;;;9.77;85.57
64679;BME280;51094;53.864;27.676;2022-10-23T12:06:23;98673.31;;;8.47;85.09
64679;BME280;51094;53.864;27.676;2022-10-23T12:08:54;98933.72;;;10.12;85.02
64679;BME280;51094;53.864;27.676;2022-10-23T12:11:45;98959.63;;;10.00;84.93
64679;BME280;51094;53.864;27.676;2022-10-23T12:14:25;98935.44;;;10.24;84.49
64679;BME280;51094;53.864;27.676;2022-10-23T12:16:54;98888.06;;;9.85;84.56
64679;BME280;51094;53.864;27.676;2022-10-23T12:19:23;98938.31;;;10.32;84.53
64679;BME280;51094;53.864;27.676;2022-10-23T12:21:53;98983.91;;;10.47;84.14
64679;BME280;51094;53.864;27.676;2022-10-23T12:24:31;98908.16;;;10.41;83.67
64679;BME280;51094;53.864;27.676;2022-10-23T12:33:28;98944.00;;;10.59;83.01
64679;BME280;51094;53.864;27.676;2022-10-23T12:38:44;98937.78;;;10.73;83.06
64679;BME280;51094;53.864;27.676;2022-10-23T12:41:14;98950.19;;;10.70;82.53
64679;BME280;51094;53.864;27.676;2022-10-23T12:43:50;98887.31;;;10.18;82.65
64679;BME280;51094;53.864;27.676;2022-10-23T12:49:15;98783.41;;;9.50;83.27
64679;BME280;51094;53.864;27.676;2022-10-23T12:51:43;98952.63;;;10.60;82.96
64679;BME280;51094;53.864;27.676;2022-10-23T12:54:18;98948.03;;;10.63;83.35
64679;BME280;51094;53.864;27.676;2022-10-23T12:56:47;98935.13;;;10.40;82.88
64679;BME280;51094;53.864;27.676;2022-10-23T12:59:20;98925.69;;;10.50;83.18
64679;BME280;51094;53.864;27.676;2022-10-23T13:01:49;98949.00;;;10.74;82.70
64679;BME280;51094;53.864;27.676;2022-10-23T13:06:54;98856.72;;;10.11;82.66
64679;BME280;51094;53.864;27.676;2022-10-23T13:09:33;98690.50;;;8.96;82.60
64679;BME280;51094;53.864;27.676;2022-10-23T13:12:25;98850.09;;;10.07;82.34
64679;BME280;51094;53.864;27.676;2022-10-23T13:17:32;98954.91;;;10.87;82.29
64679;BME280;51094;53.864;27.676;2022-10-23T13:20:20;98950.88;;;10.94;82.34
64679;BME280;51094;53.864;27.676;2022-10-23T13:22:48;98953.97;;;10.99;82.08
64679;BME280;51094;53.864;27.676;2022-10-23T13:25:33;98946.63;;;11.04;82.01
64679;BME280;51094;53.864;27.676;2022-10-23T13:28:14;98784.31;;;10.06;81.79
64679;BME280;51094;53.864;27.676;2022-10-23T13:30:44;98893.22;;;10.78;81.31
64679;BME280;51094;53.864;27.676;2022-10-23T13:35:57;98943.56;;;11.10;81.37
64679;BME280;51094;53.864;27.676;2022-10-23T13:38:36;98971.25;;;11.11;81.03
64679;BME280;51094;53.864;27.676;2022-10-23T13:41:11;98847.69;;;10.50;81.46
64679;BME280;51094;53.864;27.676;2022-10-23T13:43:38;98853.72;;;10.50;80.80
64679;BME280;51094;53.864;27.676;2022-10-23T13:46:12;98914.47;;;10.94;81.36
64679;BME280;51094;53.864;27.676;2022-10-23T13:48:39;98961.53;;;11.13;81.38
64679;BME280;51094;53.864;27.676;2022-10-23T13:51:14;98957.41;;;11.11;80.90
64679;BME280;51094;53.864;27.676;2022-10-23T13:53:42;98873.56;;;10.40;80.98
64679;BME280;51094;53.864;27.676;2022-10-23T13:56:11;98953.63;;;11.15;81.21
64679;BME280;51094;53.864;27.676;2022-10-23T13:58:38;98570.34;;;8.38;80.38
64679;BME280;51094;53.864;27.676;2022-10-23T14:01:06;98804.34;;;10.28;80.93
64679;BME280;51094;53.864;27.676;2022-10-23T14:03:38;98920.97;;;10.99;80.91
64679;BME280;51094;53.864;27.676;2022-10-23T14:06:05;98952.78;;;11.14;80.98
64679;BME280;51094;53.864;27.676;2022-10-23T14:08:32;98927.94;;;10.99;80.94
64679;BME280;51094;53.864;27.676;2022-10-23T14:10:59;98962.72;;;11.20;80.70
64679;BME280;51094;53.864;27.676;2022-10-23T14:13:25;98847.09;;;10.46;80.60
64679;BME280;51094;53.864;27.676;2022-10-23T14:15:53;98963.56;;;11.21;80.10
64679;BME280;51094;53.864;27.676;2022-10-23T14:18:20;98862.47;;;10.60;80.39
64679;BME280;51094;53.864;27.676;2022-10-23T14:20:47;98959.66;;;11.15;79.51
64679;BME280;51094;53.864;27.676;2022-10-23T14:23:14;98629.72;;;9.00;79.14
64679;BME280;51094;53.864;27.676;2022-10-23T14:25:41;98799.94;;;10.17;79.74
64679;BME280;51094;53.864;27.676;2022-10-23T14:28:08;98926.41;;;10.96;79.33
64679;BME280;51094;53.864;27.676;2022-10-23T14:30:36;98937.75;;;10.95;79.39
64679;BME280;51094;53.864;27.676;2022-10-23T14:33:03;98962.84;;;11.19;78.74
64679;BME280;51094;53.864;27.676;2022-10-23T14:35:30;98985.69;;;11.15;78.86
64679;BME280;51094;53.864;27.676;2022-10-23T14:37:57;98837.78;;;10.32;79.01
64679;BME280;51094;53.864;27.676;2022-10-23T14:40:24;98972.66;;;11.15;79.11
64679;BME280;51094;53.864;27.676;2022-10-23T14:42:51;98977.03;;;11.15;78.66
64679;BME280;51094;53.864;27.676;2022-10-23T14:45:18;98935.97;;;10.85;78.62
64679;BME280;51094;53.864;27.676;2022-10-23T14:47:45;98984.00;;;11.03;78.78
64679;BME280;51094;53.864;27.676;2022-10-23T14:50:13;98974.31;;;11.05;78.91
64679;BME280;51094;53.864;27.676;2022-10-23T14:52:40;98935.66;;;10.78;79.30
64679;BME280;51094;53.864;27.676;2022-10-23T14:55:07;98976.91;;;11.05;79.15
64679;BME280;51094;53.864;27.676;2022-10-23T14:57:34;98882.06;;;10.42;79.31
64679;BME280;51094;53.864;27.676;2022-10-23T15:00:03;98947.72;;;10.79;78.98
64679;BME280;51094;53.864;27.676;2022-10-23T15:02:32;98981.50;;;10.90;79.06
64679;BME280;51094;53.864;27.676;2022-10-23T15:04:59;98945.91;;;10.57;79.40
64679;BME280;51094;53.864;27.676;2022-10-23T15:07:29;98996.88;;;10.93;79.69
64679;BME280;51094;53.864;27.676;2022-10-23T15:09:56;98974.56;;;10.80;79.66
64679;BME280;51094;53.864;27.676;2022-10-23T15:12:23;98993.34;;;10.94;79.12